createdAt,value
2023-02-23T00:01:51.474Z,12.00
2023-02-23T00:04:18.762Z,12.00
2023-02-23T00:06:45.533Z,12.00
2023-02-23T00:09:22.797Z,12.00
2023-02-23T00:11:57.211Z,12.00
2023-02-23T00:14:28.717Z,12.00
2023-02-23T00:16:56.342Z,12.00
2023-02-23T00:19:27.834Z,12.00
2023-02-23T00:21:54.889Z,12.00
2023-02-23T00:24:22.023Z,12.10
2023-02-23T00:26:51.257Z,12.10
2023-02-23T00:29:20.957Z,12.10
2023-02-23T00:31:49.259Z,12.10
2023-02-23T00:34:20.933Z,12.10
2023-02-23T00:36:55.142Z,12.00
2023-02-23T00:39:26.365Z,12.10
2023-02-23T00:41:55.232Z,12.10
2023-02-23T00:44:23.573Z,12.10
2023-02-23T00:46:51.923Z,12.10
2023-02-23T00:49:20.579Z,12.10
2023-02-23T00:51:47.658Z,12.10
2023-02-23T00:54:15.513Z,12.10
2023-02-23T00:56:42.150Z,12.10
2023-02-23T00:59:09.486Z,12.10
2023-02-23T01:01:37.564Z,12.00
2023-02-23T01:04:04.722Z,12.10
2023-02-23T01:06:31.205Z,12.10
2023-02-23T01:08:57.814Z,12.00
2023-02-23T01:11:30.943Z,12.00
2023-02-23T01:13:59.006Z,12.00
2023-02-23T01:16:29.346Z,12.00
2023-02-23T01:18:58.913Z,12.00
2023-02-23T01:21:28.594Z,12.00
2023-02-23T01:23:56.030Z,12.00
2023-02-23T01:26:34.143Z,12.00
2023-02-23T01:29:21.108Z,12.00
2023-02-23T01:31:51.175Z,12.10
2023-02-23T01:34:19.583Z,12.10
2023-02-23T01:36:46.093Z,12.10
2023-02-23T01:39:15.819Z,12.10
2023-02-23T01:41:42.564Z,12.10
2023-02-23T01:44:15.057Z,12.10
2023-02-23T01:46:46.303Z,12.10
2023-02-23T01:49:26.045Z,12.10
2023-02-23T01:52:00.649Z,12.10
2023-02-23T01:54:32.106Z,12.10
2023-02-23T01:57:01.445Z,12.10
2023-02-23T01:59:37.345Z,12.10
2023-02-23T02:02:05.275Z,12.10
2023-02-23T02:04:43.808Z,12.20
2023-02-23T02:07:17.652Z,12.10
2023-02-23T02:10:09.706Z,12.10
2023-02-23T02:12:45.326Z,12.10
2023-02-23T02:15:17.440Z,12.10
2023-02-23T02:18:09.397Z,12.20
2023-02-23T02:21:04.900Z,12.10
2023-02-23T02:23:58.734Z,12.00
2023-02-23T02:26:53.533Z,12.00
2023-02-23T02:29:56.052Z,11.90
2023-02-23T02:32:55.331Z,12.00
2023-02-23T02:35:38.092Z,11.90
2023-02-23T02:38:37.593Z,11.90
2023-02-23T02:41:22.882Z,11.90
2023-02-23T02:44:11.531Z,11.90
2023-02-23T02:46:48.010Z,11.90
2023-02-23T02:49:26.681Z,11.90
2023-02-23T02:52:00.891Z,11.90
2023-02-23T02:54:39.481Z,11.90
2023-02-23T02:57:07.696Z,11.80
2023-02-23T03:00:05.215Z,11.80
2023-02-23T03:02:52.318Z,11.80
2023-02-23T03:05:40.079Z,11.80
2023-02-23T03:09:03.850Z,11.80
2023-02-23T03:12:20.675Z,11.90
2023-02-23T03:15:32.571Z,11.90
2023-02-23T03:18:33.913Z,11.90
2023-02-23T03:21:27.070Z,11.90
2023-02-23T03:24:23.908Z,11.80
2023-02-23T03:27:17.027Z,11.90
2023-02-23T03:30:11.274Z,11.80
2023-02-23T03:33:06.993Z,11.80
2023-02-23T03:36:06.914Z,11.90
2023-02-23T03:39:06.256Z,11.90
2023-02-23T03:41:53.172Z,11.90
2023-02-23T03:44:43.985Z,12.00
2023-02-23T03:47:31.850Z,12.00
2023-02-23T03:50:21.565Z,12.00
2023-02-23T03:53:14.979Z,12.00
2023-02-23T03:56:05.871Z,12.00
2023-02-23T03:58:57.130Z,12.00
2023-02-23T04:01:45.636Z,12.00
2023-02-23T04:04:30.969Z,12.00
2023-02-23T04:07:19.957Z,11.90
2023-02-23T04:10:05.275Z,11.90
2023-02-23T04:13:10.742Z,11.80
2023-02-23T04:15:41.085Z,11.80
2023-02-23T04:18:13.208Z,11.90
2023-02-23T04:20:39.959Z,11.90
2023-02-23T04:23:06.484Z,11.90
2023-02-23T04:25:32.972Z,11.80
2023-02-23T04:27:59.515Z,11.70
2023-02-23T04:30:28.440Z,11.60
2023-02-23T04:32:55.457Z,11.60
2023-02-23T04:35:22.553Z,11.60
2023-02-23T04:37:49.067Z,11.60
2023-02-23T04:40:15.681Z,11.60
2023-02-23T04:42:42.372Z,11.60
2023-02-23T04:45:09.715Z,11.60
2023-02-23T04:47:36.544Z,11.60
2023-02-23T04:50:03.418Z,11.60
2023-02-23T04:52:29.906Z,11.60
2023-02-23T04:54:56.390Z,11.60
2023-02-23T04:57:22.903Z,11.60
2023-02-23T04:59:49.380Z,11.50
2023-02-23T05:02:15.954Z,11.50
2023-02-23T05:04:42.464Z,11.50
2023-02-23T05:07:08.971Z,11.50
2023-02-23T05:09:35.509Z,11.50
2023-02-23T05:12:02.210Z,11.50
2023-02-23T05:14:28.682Z,11.40
2023-02-23T05:16:55.248Z,11.50
2023-02-23T05:19:21.779Z,11.40
2023-02-23T05:21:50.401Z,11.50
2023-02-23T05:24:18.235Z,11.50
2023-02-23T05:26:45.133Z,11.60
2023-02-23T05:29:12.388Z,11.60
2023-02-23T05:31:39.037Z,11.60
2023-02-23T05:34:05.603Z,11.60
2023-02-23T05:36:32.278Z,11.70
2023-02-23T05:38:58.790Z,11.70
2023-02-23T05:41:25.224Z,11.70
2023-02-23T05:43:52.636Z,11.70
2023-02-23T05:46:22.385Z,11.80
2023-02-23T05:48:49.020Z,11.80
2023-02-23T05:51:17.124Z,11.70
2023-02-23T05:53:44.948Z,11.70
2023-02-23T05:56:14.166Z,11.70
2023-02-23T05:58:40.675Z,11.70
2023-02-23T06:01:07.213Z,11.60
2023-02-23T06:03:34.222Z,11.60
2023-02-23T06:06:00.789Z,11.50
2023-02-23T06:08:27.496Z,11.50
2023-02-23T06:10:54.005Z,11.40
2023-02-23T06:13:21.298Z,11.30
2023-02-23T06:15:49.490Z,11.30
2023-02-23T06:18:17.669Z,11.20
2023-02-23T06:20:45.854Z,11.20
2023-02-23T06:23:13.384Z,11.10
2023-02-23T06:25:41.037Z,11.10
2023-02-23T06:28:08.859Z,11.10
2023-02-23T06:30:36.258Z,11.10
2023-02-23T06:33:03.141Z,11.00
2023-02-23T06:35:30.586Z,11.00
2023-02-23T06:37:57.218Z,11.00
2023-02-23T06:40:24.262Z,11.10
2023-02-23T06:42:51.207Z,11.00
2023-02-23T06:45:19.220Z,11.00
2023-02-23T06:47:47.130Z,11.00
2023-02-23T06:50:14.908Z,11.10
2023-02-23T06:52:41.891Z,11.00
2023-02-23T06:55:09.837Z,11.00
2023-02-23T06:57:36.507Z,11.00
2023-02-23T07:00:04.817Z,11.10
2023-02-23T07:02:31.762Z,11.10
2023-02-23T07:04:58.921Z,11.10
2023-02-23T07:07:25.564Z,11.10
2023-02-23T07:09:52.124Z,11.20
2023-02-23T07:12:18.753Z,11.20
2023-02-23T07:14:45.278Z,11.20
2023-02-23T07:17:12.717Z,11.30
2023-02-23T07:19:39.404Z,11.30
2023-02-23T07:22:05.998Z,11.30
2023-02-23T07:24:32.539Z,11.30
2023-02-23T07:26:59.282Z,11.40
2023-02-23T07:29:27.681Z,11.40
2023-02-23T07:31:54.845Z,11.40
2023-02-23T07:34:21.669Z,11.50
2023-02-23T07:36:48.295Z,11.50
2023-02-23T07:39:17.494Z,11.50
2023-02-23T07:41:44.157Z,11.60
2023-02-23T07:44:18.382Z,11.70
2023-02-23T07:46:49.408Z,11.70
2023-02-23T07:49:16.005Z,11.70
2023-02-23T07:51:42.796Z,11.70
2023-02-23T07:54:09.339Z,11.80
2023-02-23T07:56:35.855Z,11.70
2023-02-23T07:59:02.704Z,11.80
2023-02-23T08:01:29.323Z,11.70
2023-02-23T08:03:55.836Z,11.80
2023-02-23T08:06:22.434Z,11.80
2023-02-23T08:08:49.168Z,11.90
2023-02-23T08:11:15.817Z,11.90
2023-02-23T08:13:42.434Z,12.00
2023-02-23T08:16:09.061Z,11.90
2023-02-23T08:18:35.659Z,11.90
2023-02-23T08:21:03.893Z,11.90
2023-02-23T08:23:34.445Z,11.90
2023-02-23T08:26:02.184Z,11.80
2023-02-23T08:28:29.651Z,11.80
2023-02-23T08:30:56.331Z,11.70
2023-02-23T08:33:23.216Z,11.70
2023-02-23T08:35:49.704Z,11.80
2023-02-23T08:38:18.237Z,11.90
2023-02-23T08:40:45.149Z,12.00
2023-02-23T08:43:11.761Z,12.10
2023-02-23T08:45:39.583Z,12.20
2023-02-23T08:48:09.315Z,12.20
2023-02-23T08:50:36.955Z,12.20
2023-02-23T08:53:06.732Z,12.10
2023-02-23T08:55:36.445Z,12.10
2023-02-23T08:58:03.661Z,12.10
2023-02-23T09:00:31.822Z,12.10
2023-02-23T09:03:01.863Z,12.10
2023-02-23T09:05:40.386Z,12.20
2023-02-23T09:08:07.440Z,12.20
2023-02-23T09:10:34.772Z,12.20
2023-02-23T09:13:02.777Z,12.20
2023-02-23T09:15:29.314Z,12.30
2023-02-23T09:18:00.697Z,12.40
2023-02-23T09:20:27.255Z,12.30
2023-02-23T09:22:53.815Z,12.30
2023-02-23T09:25:22.856Z,12.30
2023-02-23T09:27:51.375Z,12.20
2023-02-23T09:30:20.691Z,12.20
2023-02-23T09:32:48.352Z,12.20
2023-02-23T09:35:17.779Z,12.30
2023-02-23T09:37:48.675Z,12.40
2023-02-23T09:40:24.858Z,12.40
2023-02-23T09:43:12.488Z,12.40
2023-02-23T09:45:43.479Z,12.40
2023-02-23T09:48:16.484Z,12.40
2023-02-23T09:50:47.638Z,12.30
2023-02-23T09:53:23.237Z,12.40
2023-02-23T09:55:53.746Z,12.40
2023-02-23T09:58:29.189Z,12.50
2023-02-23T10:01:14.007Z,12.60
2023-02-23T10:03:50.280Z,12.60
2023-02-23T10:06:18.195Z,12.80
2023-02-23T10:08:59.018Z,13.00
2023-02-23T10:11:41.941Z,13.30
2023-02-23T10:14:45.856Z,13.50
2023-02-23T10:17:17.993Z,13.50
2023-02-23T10:19:57.409Z,13.60
2023-02-23T10:22:25.714Z,13.70
2023-02-23T10:24:52.358Z,13.70
2023-02-23T10:27:21.443Z,13.80
2023-02-23T10:29:51.519Z,13.90
2023-02-23T10:32:45.673Z,14.10
2023-02-23T10:35:15.928Z,14.10
2023-02-23T10:37:42.464Z,14.20
2023-02-23T10:40:17.332Z,14.30
2023-02-23T10:42:43.871Z,14.40
2023-02-23T10:45:19.680Z,14.60
2023-02-23T10:47:47.511Z,14.60
2023-02-23T10:50:15.005Z,14.50
2023-02-23T10:52:44.783Z,14.70
2023-02-23T10:55:45.553Z,14.80
2023-02-23T10:58:19.211Z,14.80
2023-02-23T11:01:03.764Z,14.90
2023-02-23T11:03:43.311Z,14.90
2023-02-23T11:06:32.419Z,15.00
2023-02-23T11:08:59.023Z,15.00
2023-02-23T11:11:28.822Z,15.10
2023-02-23T11:13:57.509Z,15.20
2023-02-23T11:16:30.443Z,15.20
2023-02-23T11:19:03.390Z,15.10
2023-02-23T11:21:33.811Z,15.20
2023-02-23T11:24:19.279Z,15.10
2023-02-23T11:26:48.458Z,15.10
2023-02-23T11:29:35.149Z,15.00
2023-02-23T11:32:19.617Z,15.00
2023-02-23T11:34:50.943Z,15.00
2023-02-23T11:37:17.364Z,15.00
2023-02-23T11:39:57.424Z,15.10
2023-02-23T11:42:34.552Z,15.00
2023-02-23T11:45:16.243Z,14.70
2023-02-23T11:47:58.642Z,14.70
2023-02-23T11:50:27.663Z,14.80
2023-02-23T11:53:05.443Z,14.80
2023-02-23T11:55:36.588Z,14.80
2023-02-23T11:58:27.852Z,14.90
2023-02-23T12:00:59.795Z,14.90
2023-02-23T12:03:29.007Z,14.90
2023-02-23T12:05:59.826Z,14.90
2023-02-23T12:08:33.667Z,14.90
2023-02-23T12:11:02.092Z,15.00
2023-02-23T12:13:37.904Z,15.10
2023-02-23T12:16:10.596Z,15.10
2023-02-23T12:18:41.912Z,15.00
2023-02-23T12:21:38.117Z,15.10
2023-02-23T12:24:10.758Z,15.10
2023-02-23T12:26:47.048Z,15.10
2023-02-23T12:29:23.221Z,15.00
2023-02-23T12:31:57.763Z,15.00
2023-02-23T12:34:35.827Z,15.10
2023-02-23T12:37:16.981Z,15.10
2023-02-23T12:39:47.052Z,15.10
2023-02-23T12:42:17.960Z,15.10
2023-02-23T12:44:53.496Z,15.20
2023-02-23T12:47:37.131Z,15.10
2023-02-23T12:50:14.036Z,15.00
2023-02-23T12:53:02.541Z,15.00
2023-02-23T12:55:40.046Z,15.10
2023-02-23T12:58:28.462Z,15.30
2023-02-23T13:01:05.970Z,15.30
2023-02-23T13:03:49.658Z,15.30
2023-02-23T13:06:21.294Z,15.30
2023-02-23T13:09:15.534Z,15.40
2023-02-23T13:12:00.178Z,15.30
2023-02-23T13:14:30.795Z,15.20
2023-02-23T13:17:03.083Z,15.20
2023-02-23T13:19:39.220Z,15.30
2023-02-23T13:22:24.462Z,15.30
2023-02-23T13:24:53.682Z,15.20
2023-02-23T13:27:25.199Z,15.20
2023-02-23T13:29:54.936Z,15.20
2023-02-23T13:32:24.523Z,15.10
2023-02-23T13:35:00.744Z,15.00
2023-02-23T13:37:47.961Z,15.00
2023-02-23T13:40:45.434Z,15.00
2023-02-23T13:43:30.141Z,15.00
2023-02-23T13:46:26.135Z,15.00
2023-02-23T13:49:21.696Z,14.90
2023-02-23T13:51:54.929Z,14.60
2023-02-23T13:54:24.951Z,14.50
2023-02-23T13:56:56.336Z,14.60
2023-02-23T13:59:29.258Z,14.80
2023-02-23T14:01:57.333Z,14.90
2023-02-23T14:04:34.159Z,14.90
2023-02-23T14:07:16.704Z,14.90
2023-02-23T14:09:56.533Z,14.90
2023-02-23T14:12:32.591Z,15.00
2023-02-23T14:15:28.444Z,15.10
2023-02-23T14:18:00.322Z,15.10
2023-02-23T14:20:38.740Z,15.10
2023-02-23T14:23:18.386Z,15.10
2023-02-23T14:25:50.589Z,15.10
2023-02-23T14:28:30.674Z,15.10
2023-02-23T14:31:11.225Z,15.10
2023-02-23T14:33:51.462Z,15.10
2023-02-23T14:36:23.918Z,15.10
2023-02-23T14:38:56.780Z,15.10
2023-02-23T14:41:26.574Z,15.00
2023-02-23T14:44:10.619Z,15.00
2023-02-23T14:47:14.320Z,14.90
2023-02-23T14:49:47.064Z,14.90
2023-02-23T14:52:40.877Z,14.90
2023-02-23T14:55:29.076Z,14.90
2023-02-23T14:57:57.941Z,14.80
2023-02-23T15:00:32.482Z,14.80
2023-02-23T15:03:12.740Z,14.80
2023-02-23T15:05:45.040Z,14.80
2023-02-23T15:08:21.528Z,14.80
2023-02-23T15:10:51.361Z,14.80
2023-02-23T15:13:29.964Z,14.80
2023-02-23T15:16:18.275Z,14.70
2023-02-23T15:19:32.137Z,14.60
2023-02-23T15:22:00.642Z,14.50
2023-02-23T15:24:32.440Z,14.50
2023-02-23T15:26:59.916Z,14.60
2023-02-23T15:29:33.580Z,14.70
2023-02-23T15:32:18.899Z,14.70
2023-02-23T15:34:45.875Z,14.70
2023-02-23T15:37:19.933Z,14.60
2023-02-23T15:39:52.891Z,14.60
2023-02-23T15:42:28.849Z,14.60
2023-02-23T15:44:58.263Z,14.60
2023-02-23T15:47:28.955Z,14.60
2023-02-23T15:50:05.503Z,14.60
2023-02-23T15:52:35.093Z,14.40
2023-02-23T15:55:07.805Z,14.20
2023-02-23T15:57:47.314Z,14.20
2023-02-23T16:00:37.986Z,14.10
2023-02-23T16:03:06.530Z,14.00
2023-02-23T16:05:46.602Z,13.90
2023-02-23T16:08:23.316Z,13.80
2023-02-23T16:10:55.036Z,13.80
2023-02-23T16:13:22.504Z,13.70
2023-02-23T16:15:50.036Z,13.60
2023-02-23T16:18:20.062Z,13.50
2023-02-23T16:20:55.912Z,13.50
2023-02-23T16:23:36.063Z,13.50
2023-02-23T16:26:12.856Z,13.50
2023-02-23T16:28:43.466Z,13.40
2023-02-23T16:31:13.288Z,13.40
2023-02-23T16:33:54.495Z,13.40
2023-02-23T16:36:33.345Z,13.30
2023-02-23T16:39:06.977Z,13.30
2023-02-23T16:41:34.623Z,13.30
2023-02-23T16:44:03.644Z,13.30
2023-02-23T16:46:33.423Z,13.30
2023-02-23T16:49:05.157Z,13.40
2023-02-23T16:51:34.724Z,13.40
2023-02-23T16:54:04.202Z,13.40
2023-02-23T16:56:31.205Z,13.40
2023-02-23T16:59:02.991Z,13.40
2023-02-23T17:01:29.570Z,13.40
2023-02-23T17:03:56.268Z,13.40
2023-02-23T17:06:23.313Z,13.30
2023-02-23T17:08:58.485Z,13.20
2023-02-23T17:11:25.913Z,13.20
2023-02-23T17:13:52.657Z,13.10
2023-02-23T17:16:19.838Z,13.10
2023-02-23T17:18:46.667Z,13.10
2023-02-23T17:21:14.534Z,13.00
2023-02-23T17:23:51.356Z,13.00
2023-02-23T17:26:22.061Z,13.00
2023-02-23T17:28:48.759Z,13.00
2023-02-23T17:31:17.529Z,13.10
2023-02-23T17:33:44.871Z,13.10
2023-02-23T17:36:14.766Z,13.00
2023-02-23T17:38:44.079Z,13.10
2023-02-23T17:41:17.626Z,13.10
2023-02-23T17:43:44.344Z,13.10
2023-02-23T17:46:11.841Z,13.10
2023-02-23T17:48:40.577Z,13.10
2023-02-23T17:51:10.183Z,13.10
2023-02-23T17:53:36.792Z,13.10
2023-02-23T17:56:04.115Z,13.00
2023-02-23T17:58:31.016Z,13.00
2023-02-23T18:01:00.012Z,12.90
2023-02-23T18:03:34.607Z,12.90
2023-02-23T18:06:01.716Z,12.90
2023-02-23T18:08:28.359Z,13.00
2023-02-23T18:10:55.425Z,13.00
2023-02-23T18:13:22.958Z,12.90
2023-02-23T18:15:50.923Z,12.90
2023-02-23T18:18:17.628Z,12.90
2023-02-23T18:20:54.814Z,12.90
2023-02-23T18:23:23.091Z,12.80
2023-02-23T18:25:49.867Z,12.90
2023-02-23T18:28:17.483Z,12.90
2023-02-23T18:30:44.752Z,12.80
2023-02-23T18:33:12.316Z,12.80
2023-02-23T18:35:44.957Z,12.70
2023-02-23T18:38:13.966Z,12.70
2023-02-23T18:40:40.911Z,12.70
2023-02-23T18:43:08.598Z,12.70
2023-02-23T18:45:35.287Z,12.70
2023-02-23T18:48:01.908Z,12.80
2023-02-23T18:50:28.582Z,12.80
2023-02-23T18:52:56.553Z,12.80
2023-02-23T18:55:23.798Z,12.80
2023-02-23T18:57:52.614Z,12.80
2023-02-23T19:00:20.304Z,12.80
2023-02-23T19:02:47.679Z,12.80
2023-02-23T19:05:15.828Z,12.80
2023-02-23T19:07:42.676Z,12.80
2023-02-23T19:10:12.175Z,12.80
2023-02-23T19:12:39.799Z,12.80
2023-02-23T19:15:08.030Z,12.80
2023-02-23T19:17:35.484Z,12.80
2023-02-23T19:20:02.025Z,12.80
2023-02-23T19:22:29.381Z,12.70
2023-02-23T19:24:55.903Z,12.70
2023-02-23T19:27:22.664Z,12.70
2023-02-23T19:29:49.368Z,12.70
2023-02-23T19:32:18.965Z,12.60
2023-02-23T19:34:48.226Z,12.50
2023-02-23T19:37:14.742Z,12.50
2023-02-23T19:39:41.429Z,12.40
2023-02-23T19:42:09.056Z,12.30
2023-02-23T19:44:35.681Z,12.20
2023-02-23T19:47:02.219Z,12.20
2023-02-23T19:49:28.669Z,12.10
2023-02-23T19:51:55.254Z,11.90
2023-02-23T19:54:21.827Z,11.80
2023-02-23T19:56:49.888Z,11.70
2023-02-23T19:59:16.493Z,11.70
2023-02-23T20:01:45.021Z,11.60
2023-02-23T20:04:11.655Z,11.70
2023-02-23T20:06:47.185Z,11.70
2023-02-23T20:09:14.211Z,11.60
2023-02-23T20:11:40.896Z,11.60
2023-02-23T20:14:08.750Z,11.70
2023-02-23T20:16:35.614Z,11.80
2023-02-23T20:19:03.560Z,11.80
2023-02-23T20:21:31.406Z,11.80
2023-02-23T20:23:58.722Z,11.80
2023-02-23T20:26:29.119Z,11.90
2023-02-23T20:28:57.293Z,11.90
2023-02-23T20:31:26.854Z,11.80
2023-02-23T20:33:56.016Z,11.80
2023-02-23T20:36:23.756Z,11.80
2023-02-23T20:38:50.638Z,11.80
2023-02-23T20:41:17.470Z,11.70
2023-02-23T20:43:44.998Z,11.70
2023-02-23T20:46:16.772Z,11.80
2023-02-23T20:48:43.856Z,11.80
2023-02-23T20:51:15.114Z,11.70
2023-02-23T20:53:45.228Z,11.70
2023-02-23T20:56:14.932Z,11.70
2023-02-23T20:58:41.508Z,11.70
2023-02-23T21:01:23.640Z,11.70
2023-02-23T21:03:52.136Z,11.50
2023-02-23T21:06:20.401Z,11.50
2023-02-23T21:08:49.023Z,11.60
2023-02-23T21:11:17.780Z,11.60
2023-02-23T21:13:44.417Z,11.70
2023-02-23T21:16:14.804Z,11.60
2023-02-23T21:18:42.700Z,11.60
2023-02-23T21:21:10.145Z,11.60
2023-02-23T21:23:38.734Z,11.50
2023-02-23T21:26:09.786Z,11.60
2023-02-23T21:28:37.655Z,11.50
2023-02-23T21:31:04.936Z,11.40
2023-02-23T21:33:31.476Z,11.50
2023-02-23T21:35:58.747Z,11.50
2023-02-23T21:38:25.735Z,11.40
2023-02-23T21:40:52.801Z,11.30
2023-02-23T21:43:19.331Z,11.40
2023-02-23T21:45:46.685Z,11.30
2023-02-23T21:48:13.616Z,11.40
2023-02-23T21:50:40.428Z,11.50
2023-02-23T21:53:09.236Z,11.50
2023-02-23T21:55:38.628Z,11.40
2023-02-23T21:58:07.080Z,11.40
2023-02-23T22:00:35.647Z,11.50
2023-02-23T22:03:03.413Z,11.60
2023-02-23T22:05:30.075Z,11.60
2023-02-23T22:07:56.750Z,11.60
2023-02-23T22:10:24.719Z,11.50
2023-02-23T22:12:55.805Z,11.40
2023-02-23T22:15:29.579Z,11.30
2023-02-23T22:17:56.698Z,11.30
2023-02-23T22:20:23.544Z,11.30
2023-02-23T22:22:53.033Z,11.30
2023-02-23T22:25:20.207Z,11.20
2023-02-23T22:27:47.440Z,11.20
2023-02-23T22:30:15.277Z,11.30
2023-02-23T22:32:42.636Z,11.30
2023-02-23T22:35:10.170Z,11.20
2023-02-23T22:37:36.904Z,11.20
2023-02-23T22:40:16.611Z,11.20
2023-02-23T22:42:48.098Z,11.30
2023-02-23T22:45:16.023Z,11.30
2023-02-23T22:47:42.758Z,11.30
2023-02-23T22:50:12.030Z,11.30
2023-02-23T22:52:38.740Z,11.20
2023-02-23T22:55:05.591Z,11.20
2023-02-23T22:57:32.108Z,11.10
2023-02-23T23:00:10.250Z,11.10
2023-02-23T23:02:36.955Z,11.10
2023-02-23T23:05:03.919Z,11.20
2023-02-23T23:07:33.715Z,11.20
2023-02-23T23:10:05.624Z,11.20
2023-02-23T23:12:34.175Z,11.10
2023-02-23T23:15:01.288Z,11.10
2023-02-23T23:17:31.394Z,11.10
2023-02-23T23:20:00.125Z,11.10
2023-02-23T23:22:27.294Z,11.10
2023-02-23T23:24:53.816Z,11.10
2023-02-23T23:27:20.772Z,11.00
2023-02-23T23:29:48.142Z,11.00
2023-02-23T23:32:19.056Z,11.00
2023-02-23T23:34:49.506Z,10.90
2023-02-23T23:37:18.600Z,10.90
2023-02-23T23:39:45.644Z,10.70
2023-02-23T23:42:12.840Z,10.60
2023-02-23T23:44:39.421Z,10.60
2023-02-23T23:47:06.290Z,10.50
2023-02-23T23:49:38.648Z,10.50
2023-02-23T23:52:05.896Z,10.70
2023-02-23T23:54:41.258Z,10.70
2023-02-23T23:57:07.949Z,10.60
2023-02-23T23:59:35.211Z,10.50
